Time;durP1;ratioP1;P1;durP2;ratioP2;P2;SDS_P1;SDS_P2;PMS_P1;PMS_P2;Temp;Humidity;BMP_temperature;BMP_pressure;BME280_temperature;BME280_humidity;BME280_pressure;Samples;Min_cycle;Max_cycle;Signal;HPM_P1;HPM_P2
2021/12/10 00:00:53;;;;;;;6.15;3.08;;;8.20;98.10;;;;;;5041006;28;20467;-50
2021/12/10 00:03:24;;;;;;;4.50;2.70;;;8.20;98.10;;;;;;5035395;28;20320;-51
2021/12/10 00:05:56;;;;;;;11.75;3.38;;;8.20;98.20;;;;;;5036456;28;20060;-51
2021/12/10 00:08:25;;;;;;;5.60;3.30;;;8.20;98.10;;;;;;5040825;28;20048;-50
2021/12/10 00:10:54;;;;;;;10.93;3.95;;;8.20;98.10;;;;;;5042476;28;20049;-51
2021/12/10 00:13:19;;;;;;;6.18;3.22;;;8.20;98.10;;;;;;5035124;28;20527;-51
2021/12/10 00:15:46;;;;;;;5.38;3.03;;;8.20;98.10;;;;;;5033240;28;20113;-51
2021/12/10 00:18:15;;;;;;;5.53;3.08;;;8.20;98.10;;;;;;5042660;28;20077;-51
2021/12/10 00:20:42;;;;;;;5.95;3.65;;;8.10;98.10;;;;;;5041685;28;20025;-51
2021/12/10 00:23:12;;;;;;;11.30;3.60;;;8.10;98.10;;;;;;5041110;28;20029;-51
2021/12/10 00:25:40;;;;;;;;;;;8.10;98.10;;;;;;5038060;28;20033;-51
2021/12/10 00:28:19;;;;;;;7.38;3.60;;;8.10;98.10;;;;;;5040801;28;19916;-51
2021/12/10 00:31:32;;;;;;;6.10;3.78;;;8.10;98.10;;;;;;5038634;28;20028;-51
2021/12/10 00:34:21;;;;;;;5.30;3.15;;;8.10;98.20;;;;;;5039720;28;20351;-51
2021/12/10 00:36:50;;;;;;;4.22;2.88;;;8.10;98.00;;;;;;5030300;28;20041;-50
2021/12/10 00:39:27;;;;;;;6.07;3.22;;;8.10;98.10;;;;;;5042076;28;20033;-51
2021/12/10 00:41:55;;;;;;;3.92;2.38;;;8.10;98.10;;;;;;5036919;28;20370;-51
2021/12/10 00:44:21;;;;;;;6.25;3.15;;;8.10;98.10;;;;;;5032803;28;20029;-51
2021/12/10 00:46:47;;;;;;;6.25;3.03;;;8.10;98.10;;;;;;5035818;28;20033;-51
2021/12/10 00:49:13;;;;;;;5.85;3.15;;;8.10;98.00;;;;;;5040167;28;20034;-51
2021/12/10 00:51:39;;;;;;;8.07;3.80;;;8.10;98.00;;;;;;5039579;28;20447;-51
2021/12/10 00:54:06;;;;;;;7.28;2.78;;;8.10;98.10;;;;;;5042667;28;20056;-50
2021/12/10 00:56:32;;;;;;;6.28;3.35;;;8.10;98.00;;;;;;5030415;28;20108;-50
2021/12/10 00:58:58;;;;;;;6.53;3.38;;;8.10;98.10;;;;;;5037916;28;20029;-50
2021/12/10 01:01:27;;;;;;;5.88;3.20;;;8.10;98.00;;;;;;5041133;28;20021;-51
2021/12/10 01:03:57;;;;;;;8.05;3.47;;;8.10;98.10;;;;;;5041286;28;20023;-51
2021/12/10 01:06:24;;;;;;;6.80;3.75;;;8.10;98.10;;;;;;5038025;28;20150;-51
2021/12/10 01:08:54;;;;;;;5.50;3.35;;;8.10;98.20;;;;;;5038770;28;20128;-50
2021/12/10 01:11:27;;;;;;;5.90;2.90;;;8.10;98.30;;;;;;5039576;28;20020;-51
2021/12/10 01:14:00;;;;;;;11.02;3.80;;;8.10;98.00;;;;;;5035645;28;20103;-50
2021/12/10 01:27:33;;;;;;;2.17;1.60;;;8.10;98.00;;;;;;5036953;28;20087;-51
2021/12/10 01:30:14;;;;;;;6.55;1.77;;;8.10;98.00;;;;;;5031586;28;20112;-50
2021/12/10 01:32:45;;;;;;;2.70;1.77;;;8.10;97.90;;;;;;5036670;28;20348;-51
2021/12/10 01:35:14;;;;;;;15.07;3.95;;;8.10;98.00;;;;;;5039886;28;20358;-51
2021/12/10 01:37:39;;;;;;;4.95;2.80;;;8.10;97.90;;;;;;5041670;28;20342;-51
2021/12/10 01:40:07;;;;;;;4.57;2.97;;;8.10;98.00;;;;;;5034333;28;20036;-50
2021/12/10 01:42:46;;;;;;;10.93;4.25;;;8.10;98.00;;;;;;5034821;28;20068;-51
2021/12/10 01:45:27;;;;;;;6.35;3.10;;;8.10;97.90;;;;;;5033601;28;20029;-51
2021/12/10 01:48:07;;;;;;;6.68;3.15;;;8.10;97.90;;;;;;5031709;28;20459;-51
2021/12/10 01:50:37;;;;;;;9.70;3.42;;;8.10;97.80;;;;;;5037615;28;20036;-51
2021/12/10 01:53:08;;;;;;;8.83;4.00;;;8.10;97.90;;;;;;5035671;28;20044;-51
2021/12/10 01:55:37;;;;;;;7.82;3.97;;;8.00;97.80;;;;;;5039511;28;20278;-51
2021/12/10 01:58:05;;;;;;;3.58;2.75;;;8.10;97.90;;;;;;5040954;28;20060;-51
2021/12/10 02:00:35;;;;;;;2.63;1.25;;;8.10;97.90;;;;;;5026861;28;20028;-51
2021/12/10 02:03:00;;;;;;;9.03;3.30;;;8.10;97.80;;;;;;5036068;28;20057;-51
2021/12/10 02:05:26;;;;;;;13.55;3.13;;;8.10;97.90;;;;;;5040465;28;20294;-51
2021/12/10 02:07:54;;;;;;;7.53;3.75;;;8.10;97.90;;;;;;5039521;28;20041;-51
2021/12/10 02:10:22;;;;;;;8.95;3.72;;;8.10;97.90;;;;;;5039162;28;20052;-51
2021/12/10 02:12:48;;;;;;;7.60;3.97;;;8.10;97.90;;;;;;5037800;28;20057;-50
2021/12/10 02:15:15;;;;;;;5.15;3.30;;;8.10;97.80;;;;;;5032657;28;20490;-51
2021/12/10 02:17:46;;;;;;;4.50;2.90;;;8.10;97.80;;;;;;5035276;28;20171;-50
2021/12/10 02:20:34;;;;;;;4.70;2.67;;;8.10;97.90;;;;;;5040779;28;20048;-51
2021/12/10 02:23:02;;;;;;;7.65;3.45;;;8.10;97.80;;;;;;5029565;28;20041;-51
2021/12/10 02:25:30;;;;;;;10.07;3.80;;;8.10;97.80;;;;;;5039368;28;20338;-50
2021/12/10 02:27:57;;;;;;;8.60;4.32;;;8.10;97.80;;;;;;5040489;28;20029;-51
2021/12/10 02:30:26;;;;;;;6.63;3.10;;;8.10;97.80;;;;;;5037974;28;20072;-51
2021/12/10 02:32:51;;;;;;;4.90;2.72;;;8.10;97.80;;;;;;5035967;28;20082;-51
2021/12/10 02:35:17;;;;;;;8.52;3.00;;;8.10;97.80;;;;;;5041618;28;20109;-51
2021/12/10 02:37:45;;;;;;;7.70;3.17;;;8.10;97.80;;;;;;5043887;28;20131;-51
2021/12/10 02:40:14;;;;;;;4.07;2.30;;;8.10;97.80;;;;;;5043275;28;20392;-51
2021/12/10 02:42:40;;;;;;;6.60;3.40;;;8.10;97.80;;;;;;5038986;28;20028;-51
2021/12/10 02:45:09;;;;;;;9.07;2.70;;;8.10;97.80;;;;;;5032787;28;20037;-51
2021/12/10 02:47:35;;;;;;;6.60;3.22;;;8.10;97.70;;;;;;5034822;28;20414;-51
2021/12/10 02:50:01;;;;;;;8.93;3.70;;;8.10;97.70;;;;;;5042146;28;20609;-51
2021/12/10 02:52:28;;;;;;;7.93;4.07;;;8.10;97.70;;;;;;5040197;28;20307;-51
2021/12/10 02:54:57;;;;;;;8.25;3.58;;;8.00;97.70;;;;;;5043143;28;20577;-50
2021/12/10 02:57:23;;;;;;;7.33;3.77;;;8.10;97.70;;;;;;5042135;28;20041;-51
2021/12/10 02:59:49;;;;;;;9.85;4.53;;;8.10;97.70;;;;;;5036267;28;20032;-51
2021/12/10 03:02:20;;;;;;;8.13;3.60;;;8.10;97.80;;;;;;5040174;28;20487;-50
2021/12/10 03:04:45;;;;;;;9.93;3.28;;;8.10;97.70;;;;;;5038559;28;20022;-50
2021/12/10 03:07:14;;;;;;;5.50;3.20;;;8.10;97.70;;;;;;5042167;28;20037;-50
2021/12/10 03:09:49;;;;;;;8.60;3.90;;;8.10;97.70;;;;;;5043367;28;20475;-50
2021/12/10 03:12:18;;;;;;;5.97;3.58;;;8.10;97.80;;;;;;5037469;28;20431;-50
2021/12/10 03:14:46;;;;;;;6.95;4.22;;;8.00;97.70;;;;;;5035949;28;20045;-51
2021/12/10 03:17:20;;;;;;;9.32;3.88;;;8.00;97.70;;;;;;5042075;28;20029;-51
2021/12/10 03:20:06;;;;;;;10.45;4.93;;;8.10;97.80;;;;;;5041485;28;20034;-51
2021/12/10 03:22:32;;;;;;;10.00;5.38;;;8.00;97.70;;;;;;5037468;28;20041;-50
2021/12/10 03:24:58;;;;;;;14.60;5.32;;;8.00;97.60;;;;;;5025641;28;20044;-51
2021/12/10 03:27:24;;;;;;;7.78;4.25;;;8.00;97.60;;;;;;5041228;28;20064;-51
2021/12/10 03:29:51;;;;;;;10.43;4.57;;;8.00;97.60;;;;;;5034890;28;20442;-51
2021/12/10 03:32:24;;;;;;;7.70;3.58;;;8.00;97.70;;;;;;5038559;28;20033;-50
2021/12/10 03:34:50;;;;;;;7.22;4.47;;;8.00;97.70;;;;;;5038120;28;20025;-50
2021/12/10 03:37:18;;;;;;;9.65;5.55;;;8.00;97.70;;;;;;5035710;28;20493;-51
2021/12/10 03:39:46;;;;;;;9.27;4.05;;;8.00;97.70;;;;;;5034794;28;20049;-51
2021/12/10 03:42:13;;;;;;;8.55;4.80;;;8.00;97.70;;;;;;5040441;28;20032;-50
2021/12/10 03:44:39;;;;;;;8.25;4.35;;;8.00;97.60;;;;;;5038273;28;20034;-51
2021/12/10 03:47:07;;;;;;;8.85;4.07;;;8.00;97.60;;;;;;5034261;28;20035;-50
2021/12/10 03:49:35;;;;;;;15.27;4.47;;;8.00;97.70;;;;;;5032823;28;20059;-51
2021/12/10 03:52:01;;;;;;;10.45;4.63;;;8.00;97.60;;;;;;5037654;28;20018;-50
2021/12/10 03:54:27;;;;;;;7.43;4.28;;;8.00;97.60;;;;;;5043020;28;20066;-51
2021/12/10 03:56:54;;;;;;;7.28;3.15;;;8.00;97.70;;;;;;5039655;28;20044;-51
2021/12/10 03:59:22;;;;;;;14.50;4.15;;;8.00;97.60;;;;;;5038572;28;20490;-51
2021/12/10 04:01:53;;;;;;;11.73;4.55;;;8.00;97.60;;;;;;5035903;28;20311;-51
2021/12/10 04:04:31;;;;;;;11.82;4.40;;;8.00;97.50;;;;;;5040629;28;20022;-51
2021/12/10 04:07:01;;;;;;;8.00;3.88;;;8.00;97.50;;;;;;5037165;28;20098;-51
2021/12/10 04:09:26;;;;;;;8.25;4.25;;;8.00;97.60;;;;;;5038508;28;20108;-51
2021/12/10 04:11:53;;;;;;;7.97;4.50;;;8.00;97.60;;;;;;5040611;28;20104;-51
2021/12/10 04:14:19;;;;;;;9.68;4.45;;;8.00;97.60;;;;;;5043319;28;20028;-51
2021/12/10 04:16:46;;;;;;;7.60;3.42;;;8.00;97.50;;;;;;5031976;28;20026;-51
2021/12/10 04:19:13;;;;;;;9.40;3.63;;;8.00;97.50;;;;;;5042141;28;20017;-50
2021/12/10 04:21:41;;;;;;;7.25;4.40;;;7.90;97.50;;;;;;5037867;28;20029;-50
2021/12/10 04:24:14;;;;;;;10.25;4.90;;;8.00;97.50;;;;;;5041377;28;20123;-51
2021/12/10 04:26:40;;;;;;;7.32;4.47;;;7.90;97.40;;;;;;5041933;28;20021;-51
2021/12/10 04:29:06;;;;;;;7.22;4.20;;;7.90;97.50;;;;;;5035695;28;20021;-51
2021/12/10 04:31:32;;;;;;;13.95;4.90;;;7.90;97.50;;;;;;5034920;28;20029;-51
2021/12/10 04:33:58;;;;;;;10.20;4.85;;;7.90;97.40;;;;;;5040095;28;20101;-50
2021/12/10 04:36:24;;;;;;;8.80;4.60;;;7.90;97.50;;;;;;5040671;28;20359;-50
2021/12/10 04:38:49;;;;;;;7.80;4.75;;;7.90;97.40;;;;;;5038699;28;20079;-51
2021/12/10 04:41:15;;;;;;;8.05;5.18;;;7.90;97.40;;;;;;5031622;28;20040;-51
2021/12/10 04:43:43;;;;;;;9.20;4.97;;;7.90;97.30;;;;;;5042895;28;20021;-50
2021/12/10 04:46:09;;;;;;;8.45;4.85;;;7.90;97.70;;;;;;5029916;28;20038;-50
2021/12/10 04:49:06;;;;;;;10.85;4.97;;;7.90;97.50;;;;;;5040534;28;20037;-51
2021/12/10 04:51:36;;;;;;;8.63;4.95;;;7.90;97.40;;;;;;4994236;28;20752;-50
2021/12/10 04:54:05;;;;;;;7.60;4.63;;;7.90;97.40;;;;;;4998919;28;20038;-50
2021/12/10 04:56:31;;;;;;;7.57;4.10;;;7.90;97.40;;;;;;4980464;28;20045;-51
2021/12/10 04:58:59;;;;;;;7.15;3.78;;;7.90;97.50;;;;;;4999856;28;20044;-51
2021/12/10 05:01:25;;;;;;;10.15;5.13;;;7.90;97.40;;;;;;4987934;28;20049;-50
2021/12/10 05:03:50;;;;;;;6.00;3.92;;;7.90;97.40;;;;;;4993014;28;20031;-50
2021/12/10 05:06:16;;;;;;;13.65;3.90;;;7.90;97.40;;;;;;4997917;28;20036;-51
2021/12/10 05:08:42;;;;;;;8.93;4.85;;;7.90;97.40;;;;;;4998458;28;20046;-50
2021/12/10 05:11:10;;;;;;;8.43;4.32;;;7.80;97.40;;;;;;4997749;28;20049;-50
2021/12/10 05:13:38;;;;;;;8.55;4.80;;;7.80;97.50;;;;;;4993662;28;20050;-51
2021/12/10 05:16:05;;;;;;;7.88;4.15;;;7.80;97.40;;;;;;4997525;28;20038;-50
2021/12/10 05:18:37;;;;;;;7.45;4.50;;;7.80;97.40;;;;;;4997015;28;20049;-51
2021/12/10 05:21:04;;;;;;;7.05;3.70;;;7.80;97.40;;;;;;4996702;28;20117;-51
2021/12/10 05:23:30;;;;;;;9.38;4.82;;;7.80;97.40;;;;;;4998917;28;20030;-50
2021/12/10 05:25:55;;;;;;;9.13;4.28;;;7.80;97.30;;;;;;4994105;28;20030;-51
2021/12/10 05:28:21;;;;;;;11.60;4.85;;;7.80;97.30;;;;;;5020359;28;20053;-51
2021/12/10 05:30:47;;;;;;;11.82;4.15;;;7.80;97.40;;;;;;5038424;28;20112;-51
2021/12/10 05:33:17;;;;;;;12.40;4.82;;;7.80;97.30;;;;;;5039091;28;20429;-51
2021/12/10 05:35:45;;;;;;;9.30;5.35;;;7.80;97.40;;;;;;5040280;28;20025;-51
2021/12/10 05:38:11;;;;;;;10.40;5.05;;;7.80;97.40;;;;;;5036675;28;20030;-51
2021/12/10 05:40:36;;;;;;;10.85;5.10;;;7.70;97.10;;;;;;5037132;28;20028;-51
2021/12/10 05:43:03;;;;;;;11.10;5.20;;;7.80;97.40;;;;;;5041624;28;20389;-51
2021/12/10 05:45:28;;;;;;;9.77;4.40;;;7.80;97.30;;;;;;5038064;28;20037;-51
2021/12/10 05:47:54;;;;;;;6.88;3.95;;;7.80;97.20;;;;;;5025635;28;20034;-50
2021/12/10 05:50:22;;;;;;;6.97;3.65;;;7.70;97.20;;;;;;5032572;28;20029;-50
2021/12/10 05:52:48;;;;;;;7.88;3.83;;;7.80;97.30;;;;;;5037160;28;20037;-50
2021/12/10 05:55:15;;;;;;;9.50;4.70;;;7.70;97.30;;;;;;5028711;28;20336;-51
2021/12/10 05:57:41;;;;;;;7.90;4.15;;;7.80;97.30;;;;;;5028654;28;20025;-50
2021/12/10 06:00:11;;;;;;;9.82;4.30;;;7.70;97.30;;;;;;5027976;28;20478;-50
2021/12/10 06:02:37;;;;;;;6.15;3.85;;;7.80;97.40;;;;;;5022769;28;20029;-50
2021/12/10 06:05:04;;;;;;;10.85;4.47;;;7.70;97.20;;;;;;5027582;28;20115;-50
2021/12/10 06:07:30;;;;;;;12.52;4.97;;;7.70;97.20;;;;;;5031679;28;20034;-50
2021/12/10 06:09:56;;;;;;;7.68;4.22;;;7.70;97.30;;;;;;5032725;28;20040;-50
2021/12/10 06:12:22;;;;;;;10.23;3.90;;;7.70;97.20;;;;;;5029659;28;20494;-50
2021/12/10 06:14:47;;;;;;;9.25;3.90;;;7.70;97.30;;;;;;5045161;28;20057;-50
2021/12/10 06:17:13;;;;;;;4.93;3.75;;;7.70;97.30;;;;;;5039995;28;20037;-50
2021/12/10 06:19:38;;;;;;;9.13;4.57;;;7.70;97.10;;;;;;5041991;28;20377;-50
2021/12/10 06:22:05;;;;;;;6.90;4.10;;;7.70;97.20;;;;;;5040419;28;20043;-50
2021/12/10 06:24:30;;;;;;;6.13;4.53;;;7.70;97.10;;;;;;5042848;28;20030;-50
2021/12/10 06:26:56;;;;;;;16.50;6.72;;;7.70;97.20;;;;;;5042793;28;20017;-50
2021/12/10 06:29:24;;;;;;;5.90;4.00;;;7.70;97.20;;;;;;5042953;28;20509;-50
2021/12/10 06:31:52;;;;;;;12.48;5.68;;;7.70;97.20;;;;;;5036950;28;20036;-50
2021/12/10 06:34:18;;;;;;;12.65;5.82;;;7.60;97.10;;;;;;5044776;28;20056;-50
2021/12/10 06:36:44;;;;;;;9.25;5.10;;;7.70;97.30;;;;;;5041160;28;20087;-50
2021/12/10 06:39:10;;;;;;;7.80;4.35;;;7.70;97.40;;;;;;5038566;28;20033;-52
2021/12/10 06:41:36;;;;;;;12.93;4.53;;;7.70;96.70;;;;;;5042101;28;20017;-50
2021/12/10 06:44:04;;;;;;;15.32;4.32;;;7.60;94.50;;;;;;5040424;28;20052;-50
2021/12/10 06:46:32;;;;;;;7.47;4.53;;;7.60;95.70;;;;;;5041142;28;20029;-50
2021/12/10 06:48:58;;;;;;;6.50;3.67;;;7.60;95.70;;;;;;5026547;28;20091;-50
2021/12/10 06:51:24;;;;;;;7.38;3.65;;;7.60;95.60;;;;;;5032084;28;20019;-50
2021/12/10 06:53:50;;;;;;;10.07;4.53;;;7.60;95.60;;;;;;5030724;28;20112;-50
2021/12/10 06:56:17;;;;;;;7.88;4.18;;;7.60;95.60;;;;;;5028794;28;20447;-50
2021/12/10 06:58:43;;;;;;;8.38;3.75;;;7.60;95.60;;;;;;5030611;28;20036;-51
2021/12/10 07:01:18;;;;;;;8.90;4.75;;;7.60;95.60;;;;;;5030867;28;20022;-50
2021/12/10 07:03:45;;;;;;;9.30;4.22;;;7.60;95.70;;;;;;5029629;28;20021;-50
2021/12/10 07:06:12;;;;;;;13.85;5.68;;;7.60;95.60;;;;;;5033217;28;20029;-50
2021/12/10 07:08:40;;;;;;;7.22;4.10;;;7.60;95.60;;;;;;5031157;28;20035;-50
2021/12/10 07:11:07;;;;;;;9.90;4.32;;;7.60;95.60;;;;;;5042537;28;20013;-51
2021/12/10 07:13:35;;;;;;;6.82;3.97;;;7.60;95.70;;;;;;5042263;28;20052;-50
2021/12/10 07:16:02;;;;;;;10.55;5.35;;;7.60;95.70;;;;;;5033566;28;20104;-50
2021/12/10 07:18:28;;;;;;;11.32;5.10;;;7.60;95.80;;;;;;5036935;28;20053;-50
2021/12/10 07:20:53;;;;;;;11.40;4.20;;;7.60;95.90;;;;;;5039790;28;20075;-50
2021/12/10 07:23:22;;;;;;;8.68;3.78;;;7.60;95.80;;;;;;5032135;28;20029;-51
2021/12/10 07:25:48;;;;;;;11.27;3.38;;;7.60;95.90;;;;;;5021929;28;20335;-50
2021/12/10 07:28:14;;;;;;;20.20;6.22;;;7.60;95.90;;;;;;5029913;28;20041;-50
2021/12/10 07:30:40;;;;;;;38.80;13.10;;;7.60;95.90;;;;;;5034988;28;20029;-51
2021/12/10 07:33:07;;;;;;;20.63;8.95;;;7.50;96.00;;;;;;5039009;28;20401;-51
2021/12/10 07:35:34;;;;;;;16.67;6.00;;;7.60;96.00;;;;;;5048884;28;20020;-50
2021/12/10 07:38:00;;;;;;;9.15;3.60;;;7.50;96.00;;;;;;5030811;28;20029;-50
2021/12/10 07:40:28;;;;;;;5.82;3.00;;;7.50;96.00;;;;;;5035763;28;20021;-50
2021/12/10 07:42:55;;;;;;;6.80;3.40;;;7.50;96.00;;;;;;5047010;28;20230;-50
2021/12/10 07:45:22;;;;;;;6.10;3.55;;;7.60;96.00;;;;;;5040919;28;20132;-50
2021/12/10 07:47:51;;;;;;;5.63;3.15;;;7.60;96.00;;;;;;5033082;28;20066;-50
2021/12/10 07:50:20;;;;;;;10.13;3.53;;;7.50;96.00;;;;;;5034884;28;20310;-50
2021/12/10 07:52:46;;;;;;;6.68;3.35;;;7.50;96.00;;;;;;5041740;28;20398;-50
2021/12/10 07:55:15;;;;;;;5.75;3.30;;;7.50;96.00;;;;;;5039348;28;20470;-50
2021/12/10 07:57:42;;;;;;;10.70;5.57;;;7.60;96.00;;;;;;5039760;28;20029;-50
2021/12/10 08:00:12;;;;;;;8.13;4.30;;;7.50;96.00;;;;;;5043058;28;20108;-51
2021/12/10 08:02:38;;;;;;;5.38;3.22;;;7.50;96.00;;;;;;5031061;28;20030;-50
2021/12/10 08:05:04;;;;;;;3.80;2.17;;;7.50;96.10;;;;;;5036795;28;20443;-50
2021/12/10 08:07:30;;;;;;;4.57;2.25;;;7.50;95.90;;;;;;5033046;28;20029;-50
2021/12/10 08:09:56;;;;;;;7.93;2.20;;;7.50;96.00;;;;;;5033811;28;20502;-50
2021/12/10 08:12:22;;;;;;;7.25;2.08;;;7.50;96.10;;;;;;5029742;28;20025;-50
2021/12/10 08:14:52;;;;;;;3.15;1.70;;;7.50;96.10;;;;;;5032419;28;20040;-50
2021/12/10 08:17:19;;;;;;;6.32;2.00;;;7.50;96.20;;;;;;5033979;28;20025;-50
2021/12/10 08:19:46;;;;;;;4.70;1.88;;;7.50;96.10;;;;;;5039719;28;20036;-50
2021/12/10 08:22:12;;;;;;;7.68;2.30;;;7.50;96.10;;;;;;5040690;28;20032;-50
2021/12/10 08:24:38;;;;;;;3.20;2.10;;;7.50;96.10;;;;;;5036425;28;20049;-50
2021/12/10 08:27:04;;;;;;;1.90;1.38;;;7.50;96.10;;;;;;5035239;28;20406;-50
2021/12/10 08:29:29;;;;;;;3.72;2.10;;;7.50;96.20;;;;;;5035891;28;20057;-50
2021/12/10 08:31:55;;;;;;;4.85;2.15;;;7.50;96.00;;;;;;5033963;28;20111;-50
2021/12/10 08:34:21;;;;;;;1.60;1.40;;;7.50;96.10;;;;;;5030650;28;20178;-50
2021/12/10 08:36:47;;;;;;;4.13;1.65;;;7.50;96.20;;;;;;5032136;28;20017;-50
2021/12/10 08:39:13;;;;;;;4.85;1.52;;;7.50;96.20;;;;;;5032776;28;20531;-51
2021/12/10 08:41:40;;;;;;;3.63;1.80;;;7.50;96.20;;;;;;5032952;28;20029;-50
2021/12/10 08:44:07;;;;;;;2.10;1.45;;;7.50;96.20;;;;;;5032816;28;20018;-50
2021/12/10 08:46:34;;;;;;;5.90;1.85;;;7.50;96.10;;;;;;5034784;28;20024;-50
2021/12/10 08:49:00;;;;;;;2.83;1.38;;;7.50;96.20;;;;;;5028202;28;20041;-50
2021/12/10 08:51:34;;;;;;;1.50;1.40;;;7.50;96.20;;;;;;5026004;28;20156;-51
2021/12/10 08:54:01;;;;;;;7.30;2.42;;;7.50;96.20;;;;;;5035673;28;20241;-50
2021/12/10 08:56:28;;;;;;;1.77;1.30;;;7.50;96.20;;;;;;5023481;28;20608;-51
2021/12/10 08:58:56;;;;;;;2.55;2.00;;;7.50;96.30;;;;;;5035495;28;20176;-50
2021/12/10 09:01:26;;;;;;;4.75;1.77;;;7.50;96.20;;;;;;5035831;28;20363;-50
2021/12/10 09:03:57;;;;;;;2.13;1.20;;;7.50;96.30;;;;;;5033463;28;20057;-50
2021/12/10 09:06:26;;;;;;;5.53;1.55;;;7.50;96.20;;;;;;5033109;28;20288;-50
2021/12/10 09:08:54;;;;;;;2.92;1.45;;;7.50;96.20;;;;;;5037431;28;20167;-50
2021/12/10 09:11:20;;;;;;;6.32;1.98;;;7.50;96.20;;;;;;5031928;28;20132;-50
2021/12/10 09:13:46;;;;;;;3.80;1.75;;;7.50;96.30;;;;;;5036717;28;20139;-50
2021/12/10 09:16:22;;;;;;;1.65;1.10;;;7.50;96.30;;;;;;5032825;28;20022;-50
2021/12/10 09:18:48;;;;;;;2.05;1.00;;;7.50;96.30;;;;;;5030088;28;20136;-50
2021/12/10 09:21:14;;;;;;;3.22;0.88;;;7.50;96.30;;;;;;5032645;28;20039;-50
2021/12/10 09:23:40;;;;;;;4.20;1.17;;;7.60;96.30;;;;;;5031405;28;20033;-50
2021/12/10 09:26:14;;;;;;;1.95;1.15;;;7.60;96.40;;;;;;5035798;28;20025;-50
2021/12/10 09:28:42;;;;;;;0.95;0.95;;;7.60;96.40;;;;;;5031563;28;20455;-50
2021/12/10 09:31:08;;;;;;;1.88;1.25;;;7.60;96.30;;;;;;5031549;28;20033;-50
2021/12/10 09:33:35;;;;;;;6.13;1.30;;;7.60;96.30;;;;;;5034876;28;20042;-50
2021/12/10 09:36:01;;;;;;;4.22;1.65;;;7.60;96.20;;;;;;5038970;28;20354;-50
2021/12/10 09:38:28;;;;;;;1.65;1.38;;;7.60;96.30;;;;;;5029601;28;20026;-50
2021/12/10 09:40:58;;;;;;;2.47;1.10;;;7.60;96.60;;;;;;5033129;28;20429;-50
2021/12/10 09:43:24;;;;;;;;;;;7.60;96.30;;;;;;5040241;28;20528;-50
2021/12/10 09:45:52;;;;;;;5.18;1.70;;;7.60;96.20;;;;;;5042510;28;19947;-50
2021/12/10 09:48:20;;;;;;;3.15;1.83;;;7.60;96.10;;;;;;5041761;28;20039;-50
2021/12/10 09:50:58;;;;;;;2.22;1.13;;;7.60;96.20;;;;;;5035809;28;20346;-50
2021/12/10 09:53:27;;;;;;;1.55;1.38;;;7.60;96.20;;;;;;5030149;28;20447;-50
2021/12/10 09:55:52;;;;;;;6.43;1.92;;;7.70;96.20;;;;;;5041226;28;20044;-50
2021/12/10 09:58:20;;;;;;;1.67;1.10;;;7.60;96.10;;;;;;5037331;28;20029;-50
2021/12/10 10:00:56;;;;;;;1.27;1.00;;;7.60;96.10;;;;;;5038038;28;20418;-50
2021/12/10 10:03:31;;;;;;;4.20;1.90;;;7.70;96.10;;;;;;5037706;28;20451;-51
2021/12/10 10:05:58;;;;;;;3.42;1.85;;;7.70;96.10;;;;;;5044121;28;20037;-50
2021/12/10 10:08:25;;;;;;;6.68;2.42;;;7.70;96.10;;;;;;5034233;28;20148;-50
2021/12/10 10:10:56;;;;;;;3.80;2.80;;;7.60;96.00;;;;;;5044222;28;20458;-51
2021/12/10 10:13:29;;;;;;;7.03;3.05;;;7.60;96.10;;;;;;5039808;28;20048;-50
2021/12/10 10:15:58;;;;;;;10.38;3.05;;;7.60;96.00;;;;;;5028126;28;20033;-50
2021/12/10 10:18:24;;;;;;;7.40;3.30;;;7.60;96.00;;;;;;5036125;28;20032;-50
2021/12/10 10:20:57;;;;;;;13.02;3.53;;;7.60;96.10;;;;;;5033657;28;20343;-51
2021/12/10 10:23:25;;;;;;;5.70;2.88;;;7.60;96.00;;;;;;5039059;28;20029;-50
2021/12/10 10:25:54;;;;;;;7.15;2.63;;;7.60;96.10;;;;;;5027397;28;20032;-50
2021/12/10 10:28:21;;;;;;;5.55;2.42;;;7.70;96.20;;;;;;5024368;28;20065;-50
2021/12/10 10:30:58;;;;;;;5.65;2.47;;;7.70;96.20;;;;;;5038314;28;20025;-50
2021/12/10 10:33:25;;;;;;;5.70;2.35;;;7.70;96.10;;;;;;5028242;28;20036;-51
2021/12/10 10:35:54;;;;;;;5.18;2.63;;;7.60;96.10;;;;;;5036797;28;20032;-50
2021/12/10 10:38:22;;;;;;;3.47;2.67;;;7.60;96.10;;;;;;5032681;28;20022;-50
2021/12/10 10:40:55;;;;;;;5.25;2.55;;;7.70;96.20;;;;;;5036831;28;20268;-50
2021/12/10 10:43:23;;;;;;;4.50;2.17;;;7.70;96.20;;;;;;5034124;28;20773;-50
2021/12/10 10:45:49;;;;;;;4.80;2.55;;;7.70;96.20;;;;;;5038438;28;20064;-51
2021/12/10 10:48:17;;;;;;;5.00;2.42;;;7.70;96.20;;;;;;5043585;28;20061;-50
2021/12/10 10:51:16;;;;;;;7.78;2.42;;;7.70;96.20;;;;;;5031038;28;20100;-50
2021/12/10 10:53:48;;;;;;;1.92;1.33;;;7.70;96.20;;;;;;5034924;28;20475;-50
2021/12/10 10:56:19;;;;;;;4.30;2.05;;;7.70;96.20;;;;;;5034355;28;20080;-50
2021/12/10 10:58:46;;;;;;;;;;;7.70;96.20;;;;;;5034216;28;20021;-50
2021/12/10 11:01:26;;;;;;;5.40;2.25;;;7.70;96.10;;;;;;5038325;28;19905;-51
2021/12/10 11:04:01;;;;;;;2.80;1.83;;;7.70;96.10;;;;;;5037134;28;20041;-51
2021/12/10 11:06:37;;;;;;;4.53;2.85;;;7.70;96.10;;;;;;5028986;28;20623;-51
2021/12/10 11:09:14;;;;;;;4.50;2.22;;;7.70;96.10;;;;;;5036883;28;20041;-50
2021/12/10 11:11:51;;;;;;;4.78;2.20;;;7.80;96.10;;;;;;5031183;28;20061;-51
2021/12/10 11:14:25;;;;;;;9.27;2.72;;;7.80;96.00;;;;;;5030212;28;20037;-51
2021/12/10 11:16:55;;;;;;;1.90;1.70;;;7.80;96.00;;;;;;5035073;28;20451;-50
2021/12/10 11:19:27;;;;;;;1.70;1.25;;;7.80;95.90;;;;;;5034097;28;20364;-51
2021/12/10 11:22:09;;;;;;;4.57;2.55;;;7.80;95.80;;;;;;5036861;28;20112;-50
2021/12/10 11:24:47;;;;;;;5.07;2.67;;;7.80;96.00;;;;;;5030637;28;20040;-50
2021/12/10 11:27:33;;;;;;;4.75;2.20;;;7.80;96.00;;;;;;5037329;28;20693;-50
2021/12/10 11:30:01;;;;;;;3.38;2.22;;;7.80;96.00;;;;;;5032004;28;20045;-50
2021/12/10 11:32:43;;;;;;;3.92;2.50;;;7.80;95.90;;;;;;5032956;28;20025;-50
2021/12/10 11:35:16;;;;;;;3.47;2.30;;;7.80;96.00;;;;;;5032190;28;20025;-51
2021/12/10 11:38:05;;;;;;;3.45;1.73;;;7.80;95.90;;;;;;5032840;28;20029;-50
2021/12/10 11:40:42;;;;;;;8.75;2.90;;;7.80;95.90;;;;;;5031023;28;20075;-50
2021/12/10 11:43:33;;;;;;;5.00;2.40;;;7.80;95.90;;;;;;5026504;28;20258;-50
2021/12/10 11:49:07;;;;;;;5.20;2.55;;;7.80;96.00;;;;;;5035888;28;20037;-50
2021/12/10 11:51:46;;;;;;;8.98;3.70;;;7.80;96.00;;;;;;5029868;28;20128;-50
2021/12/10 11:54:35;;;;;;;5.40;2.70;;;7.80;96.00;;;;;;5044410;28;20112;-50
2021/12/10 11:57:26;;;;;;;6.72;2.78;;;7.80;96.00;;;;;;5042392;28;20175;-50
2021/12/10 12:00:16;;;;;;;6.15;3.35;;;7.80;96.00;;;;;;5024680;28;20340;-50
2021/12/10 12:03:13;;;;;;;3.33;2.50;;;7.80;95.90;;;;;;5043154;28;20148;-50
2021/12/10 12:05:44;;;;;;;6.95;2.20;;;7.80;96.00;;;;;;5032620;28;20478;-50
2021/12/10 12:08:17;;;;;;;8.60;2.80;;;7.80;95.90;;;;;;5027638;28;20034;-50
2021/12/10 12:10:45;;;;;;;4.28;2.60;;;7.80;95.90;;;;;;5030412;28;20033;-51
2021/12/10 12:15:45;;;;;;;7.55;2.92;;;7.80;95.90;;;;;;5038156;28;20025;-51
2021/12/10 12:18:25;;;;;;;1.20;1.05;;;7.80;95.90;;;;;;5031308;28;20056;-51
2021/12/10 12:20:52;;;;;;;;;;;7.80;95.70;;;;;;5032499;28;20033;-50
2021/12/10 12:26:17;;;;;;;4.40;2.20;;;7.80;95.90;;;;;;5031925;28;20079;-51
2021/12/10 12:28:48;;;;;;;4.30;2.35;;;7.90;95.90;;;;;;5036112;28;20064;-50
2021/12/10 12:31:27;;;;;;;6.45;2.25;;;7.90;95.90;;;;;;5041519;28;20032;-51
2021/12/10 12:34:07;;;;;;;7.20;2.17;;;7.90;95.90;;;;;;5038158;28;20025;-50
2021/12/10 12:36:41;;;;;;;;;;;7.90;95.90;;;;;;5034921;28;20029;-50
2021/12/10 12:39:24;;;;;;;1.60;1.17;;;7.90;95.80;;;;;;5034843;28;19912;-50
2021/12/10 12:41:52;;;;;;;1.10;0.93;;;7.90;95.80;;;;;;5039738;28;20033;-51
2021/12/10 12:44:31;;;;;;;6.07;2.95;;;7.90;95.80;;;;;;5036287;28;20041;-50
2021/12/10 12:47:02;;;;;;;8.13;1.70;;;7.90;95.80;;;;;;5036847;28;20454;-51
2021/12/10 12:49:49;;;;;;;2.72;1.67;;;7.90;95.80;;;;;;5038740;28;20041;-50
2021/12/10 12:52:17;;;;;;;5.82;2.67;;;7.90;95.90;;;;;;5034613;28;20337;-50
2021/12/10 12:55:07;;;;;;;5.22;2.72;;;7.90;95.90;;;;;;5037279;28;20018;-51
2021/12/10 12:57:56;;;;;;;6.70;3.15;;;7.90;95.90;;;;;;5043238;28;20037;-51
2021/12/10 13:00:27;;;;;;;11.68;4.35;;;7.90;95.90;;;;;;5034690;28;20037;-51
2021/12/10 13:03:03;;;;;;;5.15;2.55;;;7.90;95.90;;;;;;5035729;28;20082;-51
2021/12/10 13:05:56;;;;;;;8.80;2.70;;;7.90;96.00;;;;;;5035052;28;20026;-51
2021/12/10 13:08:28;;;;;;;11.27;3.03;;;7.90;95.90;;;;;;5041433;28;20390;-51
2021/12/10 13:11:16;;;;;;;3.42;2.75;;;7.90;95.90;;;;;;5039699;28;20056;-51
2021/12/10 13:13:51;;;;;;;3.42;2.33;;;7.90;95.90;;;;;;5035255;28;20343;-50
2021/12/10 13:16:43;;;;;;;4.28;2.65;;;7.90;96.00;;;;;;5036956;28;20029;-51
2021/12/10 13:19:15;;;;;;;6.78;3.28;;;7.90;96.00;;;;;;5032889;28;20014;-50
2021/12/10 13:21:41;;;;;;;6.20;2.75;;;7.90;96.00;;;;;;5022958;28;20116;-50
2021/12/10 13:24:07;;;;;;;5.82;2.70;;;7.90;96.00;;;;;;5040826;28;20101;-50
2021/12/10 13:26:32;;;;;;;7.53;4.07;;;7.90;96.00;;;;;;5032883;28;20021;-50
2021/12/10 13:28:58;;;;;;;5.80;3.38;;;7.90;96.00;;;;;;5037549;28;20370;-51
2021/12/10 13:31:24;;;;;;;4.75;2.28;;;7.90;96.00;;;;;;5033252;28;20025;-50